RYR765 EGNX-EVRA
Flight info
| Callsign | RYR765 |
|---|---|
| Flight time | N/A |
| Altitude | 37000 |
| Route | TNT M868 ADELU L60 MAMUL L603 LAMIX UT29 LIBSO UL975 ERDOW DCT ROPAL DCT LESRA DCT EPILO DCT KULUD DCT GELDA DCT ORVIX |
| Aircraft | B38M/M-SDE1FGHILORVWXY/HB1 |
Departure
| Time | 2026-05-08 06:46 |
|---|---|
| Airport | East Midlands Airport (EGNX) |
Arrival
| Time | N/A |
|---|---|
| Airport | Riga International Airport (EVRA) |
| Time | Latitude | Longitude | Altitude | Speed | Heading |
|---|---|---|---|---|---|
| 2026-05-08 06:21 | 52.82728 | -1.33059 | 304 ft | 0 kts | 178° |
| 2026-05-08 06:36 | 52.82729 | -1.33059 | 303 ft | 2 kts | 178° |
| 2026-05-08 06:36 | 52.82754 | -1.33061 | 303 ft | 4 kts | 177° |
| 2026-05-08 06:37 | 52.82776 | -1.33065 | 303 ft | 4 kts | 156° |
| 2026-05-08 06:37 | 52.82790 | -1.33092 | 305 ft | 4 kts | 96° |
| 2026-05-08 06:37 | 52.82791 | -1.33122 | 303 ft | 1 kts | 88° |
| 2026-05-08 06:37 | 52.82791 | -1.33126 | 303 ft | 0 kts | 88° |
| 2026-05-08 06:39 | 52.82791 | -1.33125 | 303 ft | 1 kts | 88° |
| 2026-05-08 06:40 | 52.82791 | -1.33102 | 303 ft | 3 kts | 88° |
| 2026-05-08 06:40 | 52.82792 | -1.33054 | 303 ft | 5 kts | 88° |
| 2026-05-08 06:40 | 52.82793 | -1.32979 | 303 ft | 8 kts | 88° |
| 2026-05-08 06:40 | 52.82805 | -1.32885 | 305 ft | 9 kts | 52° |
| 2026-05-08 06:41 | 52.82869 | -1.32859 | 303 ft | 11 kts | 358° |
| 2026-05-08 06:41 | 52.82929 | -1.32800 | 306 ft | 11 kts | 73° |
| 2026-05-08 06:41 | 52.82933 | -1.32661 | 303 ft | 14 kts | 90° |
| 2026-05-08 06:41 | 52.82937 | -1.32492 | 303 ft | 15 kts | 89° |
| 2026-05-08 06:42 | 52.82940 | -1.32306 | 303 ft | 17 kts | 87° |
| 2026-05-08 06:42 | 52.82944 | -1.32096 | 303 ft | 19 kts | 89° |
| 2026-05-08 06:42 | 52.82948 | -1.31867 | 303 ft | 21 kts | 88° |
| 2026-05-08 06:42 | 52.82952 | -1.31621 | 303 ft | 22 kts | 89° |
| 2026-05-08 06:43 | 52.82957 | -1.31356 | 306 ft | 24 kts | 88° |
| 2026-05-08 06:43 | 52.82961 | -1.31106 | 307 ft | 21 kts | 89° |
| 2026-05-08 06:43 | 52.82965 | -1.30919 | 303 ft | 16 kts | 88° |
| 2026-05-08 06:43 | 52.82984 | -1.30744 | 304 ft | 14 kts | 59° |
| 2026-05-08 06:44 | 52.83062 | -1.30675 | 304 ft | 13 kts | 358° |
| 2026-05-08 06:44 | 52.83135 | -1.30711 | 306 ft | 10 kts | 299° |
| 2026-05-08 06:44 | 52.83138 | -1.30774 | 302 ft | 0 kts | 266° |
| 2026-05-08 06:45 | 52.83137 | -1.30819 | 303 ft | 13 kts | 269° |
| 2026-05-08 06:45 | 52.83126 | -1.31402 | 309 ft | 88 kts | 268° |
| 2026-05-08 06:45 | 52.83101 | -1.32791 | 303 ft | 151 kts | 268° |
| 2026-05-08 06:45 | 52.83070 | -1.34621 | 755 ft | 165 kts | 269° |
| 2026-05-08 06:46 | 52.83034 | -1.36553 | 1450 ft | 171 kts | 265° |
| 2026-05-08 06:46 | 52.83059 | -1.38542 | 2200 ft | 174 kts | 275° |
| 2026-05-08 06:46 | 52.83386 | -1.40560 | 2754 ft | 193 kts | 292° |
| 2026-05-08 06:46 | 52.84061 | -1.42640 | 3181 ft | 219 kts | 297° |
| 2026-05-08 06:47 | 52.84816 | -1.44916 | 3883 ft | 229 kts | 296° |
| 2026-05-08 06:47 | 52.85602 | -1.47321 | 4517 ft | 247 kts | 296° |
| 2026-05-08 06:47 | 52.86442 | -1.49916 | 5126 ft | 264 kts | 296° |
| 2026-05-08 06:47 | 52.87593 | -1.52343 | 5875 ft | 274 kts | 325° |
| 2026-05-08 06:48 | 52.89380 | -1.53386 | 6804 ft | 279 kts | 357° |
| 2026-05-08 06:48 | 52.91296 | -1.52847 | 7622 ft | 282 kts | 23° |
| 2026-05-08 06:48 | 52.92912 | -1.50982 | 8428 ft | 287 kts | 50° |
| 2026-05-08 06:48 | 52.94091 | -1.48285 | 9245 ft | 292 kts | 53° |
| 2026-05-08 06:49 | 52.95334 | -1.45569 | 10048 ft | 297 kts | 52° |
| 2026-05-08 06:49 | 52.96602 | -1.42831 | 10595 ft | 311 kts | 52° |
| 2026-05-08 06:49 | 52.97978 | -1.39924 | 11003 ft | 328 kts | 51° |
| 2026-05-08 06:49 | 52.99415 | -1.36887 | 11570 ft | 338 kts | 52° |
| 2026-05-08 06:50 | 53.00874 | -1.33772 | 12398 ft | 341 kts | 52° |
| 2026-05-08 06:50 | 53.02330 | -1.30636 | 13180 ft | 345 kts | 52° |
| 2026-05-08 06:50 | 53.03784 | -1.27493 | 13913 ft | 350 kts | 52° |
| 2026-05-08 06:50 | 53.05275 | -1.24264 | 14590 ft | 354 kts | 52° |
| 2026-05-08 06:51 | 53.06779 | -1.20998 | 15281 ft | 358 kts | 52° |
| 2026-05-08 06:51 | 53.08300 | -1.17690 | 15964 ft | 362 kts | 52° |
| 2026-05-08 06:51 | 53.09836 | -1.14347 | 16648 ft | 366 kts | 53° |
| 2026-05-08 06:51 | 53.11391 | -1.10955 | 17316 ft | 370 kts | 53° |
| 2026-05-08 06:52 | 53.12957 | -1.07535 | 17973 ft | 374 kts | 53° |
| 2026-05-08 06:52 | 53.14541 | -1.04072 | 18578 ft | 377 kts | 53° |
| 2026-05-08 06:52 | 53.16134 | -1.00583 | 19135 ft | 380 kts | 53° |
| 2026-05-08 06:52 | 53.17745 | -0.97050 | 19700 ft | 383 kts | 53° |
| 2026-05-08 06:53 | 53.19361 | -0.93499 | 20257 ft | 386 kts | 53° |
| 2026-05-08 06:53 | 53.20992 | -0.89909 | 20813 ft | 389 kts | 53° |
| 2026-05-08 06:53 | 53.22627 | -0.86303 | 21360 ft | 392 kts | 53° |
| 2026-05-08 06:53 | 53.24278 | -0.82659 | 21900 ft | 394 kts | 53° |
| 2026-05-08 06:54 | 53.25917 | -0.79034 | 22419 ft | 397 kts | 53° |
| 2026-05-08 06:54 | 53.27585 | -0.75338 | 22936 ft | 400 kts | 53° |
| 2026-05-08 06:54 | 53.29266 | -0.71610 | 23461 ft | 403 kts | 53° |
| 2026-05-08 06:54 | 53.30898 | -0.67774 | 23904 ft | 406 kts | 62° |
| 2026-05-08 06:55 | 53.32057 | -0.63714 | 24357 ft | 407 kts | 66° |
| 2026-05-08 06:55 | 53.33270 | -0.59410 | 24750 ft | 411 kts | 65° |
| 2026-05-08 06:55 | 53.34492 | -0.55067 | 25190 ft | 413 kts | 65° |
| 2026-05-08 06:55 | 53.35717 | -0.50701 | 25611 ft | 416 kts | 65° |
| 2026-05-08 06:56 | 53.36950 | -0.46294 | 26034 ft | 418 kts | 65° |
| 2026-05-08 06:56 | 53.38189 | -0.41856 | 26459 ft | 421 kts | 65° |
| 2026-05-08 06:56 | 53.39433 | -0.37394 | 26862 ft | 424 kts | 65° |
| 2026-05-08 06:56 | 53.40693 | -0.32918 | 27277 ft | 426 kts | 65° |
| 2026-05-08 06:57 | 53.41947 | -0.28460 | 27658 ft | 429 kts | 65° |
| 2026-05-08 06:57 | 53.43222 | -0.23919 | 28050 ft | 432 kts | 65° |
| 2026-05-08 06:57 | 53.44506 | -0.19336 | 28447 ft | 434 kts | 65° |
| 2026-05-08 06:57 | 53.45794 | -0.14728 | 28830 ft | 437 kts | 65° |
| 2026-05-08 06:58 | 53.47087 | -0.10093 | 29194 ft | 440 kts | 65° |
| 2026-05-08 06:58 | 53.48385 | -0.05432 | 29558 ft | 442 kts | 65° |
| 2026-05-08 06:58 | 53.49691 | -0.00731 | 29925 ft | 444 kts | 65° |
| 2026-05-08 06:58 | 53.51000 | 0.03986 | 30245 ft | 447 kts | 65° |
| 2026-05-08 06:59 | 53.52374 | 0.08610 | 30512 ft | 449 kts | 57° |
| 2026-05-08 06:59 | 53.54344 | 0.12665 | 30851 ft | 449 kts | 46° |
| 2026-05-08 06:59 | 53.56443 | 0.16598 | 31065 ft | 453 kts | 48° |
| 2026-05-08 06:59 | 53.58546 | 0.20568 | 31375 ft | 454 kts | 47° |
| 2026-05-08 07:00 | 53.60664 | 0.24533 | 31660 ft | 457 kts | 47° |
| 2026-05-08 07:00 | 53.62799 | 0.28522 | 31941 ft | 459 kts | 47° |
| 2026-05-08 07:00 | 53.64945 | 0.32532 | 32224 ft | 461 kts | 47° |
| 2026-05-08 07:00 | 53.67092 | 0.36550 | 32498 ft | 463 kts | 47° |
| 2026-05-08 07:01 | 53.69252 | 0.40598 | 32772 ft | 464 kts | 47° |
| 2026-05-08 07:01 | 53.71416 | 0.44662 | 33055 ft | 466 kts | 47° |
| 2026-05-08 07:01 | 53.73559 | 0.48692 | 33315 ft | 468 kts | 47° |
| 2026-05-08 07:01 | 53.75738 | 0.52796 | 33586 ft | 470 kts | 47° |
| 2026-05-08 07:02 | 53.77920 | 0.56914 | 33909 ft | 470 kts | 48° |
| 2026-05-08 07:02 | 53.80100 | 0.61033 | 34235 ft | 470 kts | 48° |
| 2026-05-08 07:02 | 53.82280 | 0.65161 | 34521 ft | 470 kts | 48° |
| 2026-05-08 07:02 | 53.84457 | 0.69288 | 34786 ft | 470 kts | 48° |
| 2026-05-08 07:03 | 53.86633 | 0.73421 | 35059 ft | 470 kts | 48° |
| 2026-05-08 07:03 | 53.88807 | 0.77558 | 35314 ft | 470 kts | 48° |
| 2026-05-08 07:03 | 53.90986 | 0.81709 | 35575 ft | 471 kts | 48° |
| 2026-05-08 07:03 | 53.93009 | 0.86085 | 35829 ft | 471 kts | 54° |
| 2026-05-08 07:04 | 53.94906 | 0.90614 | 36077 ft | 471 kts | 54° |
| 2026-05-08 07:04 | 53.96802 | 0.95163 | 36306 ft | 471 kts | 54° |
| 2026-05-08 07:04 | 53.98693 | 0.99724 | 36550 ft | 472 kts | 54° |
| 2026-05-08 07:04 | 54.00576 | 1.04277 | 36789 ft | 472 kts | 54° |
| 2026-05-08 07:05 | 54.02468 | 1.08860 | 37001 ft | 472 kts | 54° |
| 2026-05-08 07:05 | 54.04329 | 1.13375 | 37147 ft | 473 kts | 54° |
| 2026-05-08 07:05 | 54.08104 | 1.22561 | 37119 ft | 471 kts | 54° |
| 2026-05-08 07:06 | 54.11858 | 1.31727 | 37137 ft | 471 kts | 54° |
| 2026-05-08 07:06 | 54.15602 | 1.40904 | 37135 ft | 471 kts | 54° |
| 2026-05-08 07:07 | 54.19344 | 1.50109 | 37137 ft | 471 kts | 55° |
| 2026-05-08 07:07 | 54.23054 | 1.59268 | 37125 ft | 471 kts | 55° |
| 2026-05-08 07:08 | 54.26782 | 1.68509 | 37142 ft | 472 kts | 55° |
| 2026-05-08 07:08 | 54.30504 | 1.77765 | 37143 ft | 472 kts | 55° |
| 2026-05-08 07:09 | 54.34219 | 1.87040 | 37143 ft | 471 kts | 55° |
| 2026-05-08 07:09 | 54.37921 | 1.96319 | 37146 ft | 471 kts | 55° |
| 2026-05-08 07:10 | 54.41600 | 2.05573 | 37143 ft | 471 kts | 55° |
| 2026-05-08 07:10 | 54.45288 | 2.14883 | 37140 ft | 472 kts | 55° |
| 2026-05-08 07:11 | 54.48973 | 2.24222 | 37156 ft | 471 kts | 55° |
| 2026-05-08 07:11 | 54.52652 | 2.33582 | 37149 ft | 471 kts | 56° |
| 2026-05-08 07:12 | 54.56295 | 2.42882 | 37152 ft | 471 kts | 56° |
| 2026-05-08 07:12 | 54.59959 | 2.52272 | 37151 ft | 471 kts | 56° |
| 2026-05-08 07:13 | 54.63610 | 2.61666 | 37157 ft | 471 kts | 56° |
| 2026-05-08 07:13 | 54.67257 | 2.71084 | 37148 ft | 471 kts | 56° |
| 2026-05-08 07:14 | 54.70897 | 2.80518 | 37154 ft | 471 kts | 56° |
| 2026-05-08 07:14 | 54.74499 | 2.89893 | 37158 ft | 471 kts | 56° |
| 2026-05-08 07:15 | 54.78120 | 2.99350 | 37160 ft | 471 kts | 56° |
| 2026-05-08 07:15 | 54.81731 | 3.08819 | 37160 ft | 471 kts | 56° |
| 2026-05-08 07:16 | 54.85337 | 3.18309 | 37160 ft | 471 kts | 56° |
| 2026-05-08 07:16 | 54.88932 | 3.27809 | 37155 ft | 470 kts | 56° |
| 2026-05-08 07:17 | 54.92515 | 3.37314 | 37160 ft | 470 kts | 57° |
| 2026-05-08 07:17 | 54.95484 | 3.45215 | 37162 ft | 470 kts | 57° |
| 2026-05-08 07:18 | 54.99052 | 3.54747 | 37166 ft | 469 kts | 57° |
| 2026-05-08 07:18 | 55.02610 | 3.64285 | 37168 ft | 469 kts | 57° |
| 2026-05-08 07:19 | 55.06164 | 3.73844 | 37165 ft | 469 kts | 57° |